createdAt,value
2023-01-04T00:01:07.615Z,98879.50
2023-01-04T00:03:34.309Z,98874.50
2023-01-04T00:06:02.252Z,98869.00
2023-01-04T00:08:29.160Z,98866.38
2023-01-04T00:11:03.923Z,98871.25
2023-01-04T00:13:30.781Z,98868.50
2023-01-04T00:16:02.488Z,98858.13
2023-01-04T00:18:34.292Z,98855.38
2023-01-04T00:21:11.335Z,98843.94
2023-01-04T00:23:41.812Z,98847.88
2023-01-04T00:26:16.150Z,98847.81
2023-01-04T00:28:44.833Z,98826.03
2023-01-04T00:31:15.353Z,98826.63
2023-01-04T00:33:41.976Z,98822.84
2023-01-04T00:36:10.264Z,98818.75
2023-01-04T00:38:37.147Z,98817.53
2023-01-04T00:41:03.948Z,98807.66
2023-01-04T00:43:30.444Z,98800.72
2023-01-04T00:45:57.001Z,98795.84
2023-01-04T00:48:23.582Z,98798.38
2023-01-04T00:50:50.126Z,98786.28
2023-01-04T00:53:17.523Z,98781.91
2023-01-04T00:55:44.074Z,98773.56
2023-01-04T00:58:10.650Z,98764.09
2023-01-04T01:00:37.281Z,98756.03
2023-01-04T01:03:04.420Z,98752.69
2023-01-04T01:05:31.323Z,98745.56
2023-01-04T01:07:57.787Z,98741.91
2023-01-04T01:10:24.528Z,98744.22
2023-01-04T01:12:51.040Z,98752.88
2023-01-04T01:15:17.848Z,98755.22
2023-01-04T01:17:44.635Z,98737.81
2023-01-04T01:20:11.215Z,98743.31
2023-01-04T01:22:37.772Z,98737.22
2023-01-04T01:25:04.717Z,98731.94
2023-01-04T01:27:31.175Z,98725.00
2023-01-04T01:29:57.646Z,98716.56
2023-01-04T01:32:24.143Z,98721.75
2023-01-04T01:34:50.613Z,98715.31
2023-01-04T01:37:17.079Z,98711.44
2023-01-04T01:39:43.564Z,98697.91
2023-01-04T01:42:21.047Z,98700.13
2023-01-04T01:44:54.859Z,98694.13
2023-01-04T01:47:22.982Z,98682.63
2023-01-04T01:49:50.936Z,98693.84
2023-01-04T01:52:18.840Z,98689.94
2023-01-04T01:54:47.555Z,98681.69
2023-01-04T01:57:20.017Z,98676.69
2023-01-04T01:59:47.212Z,98683.22
2023-01-04T02:02:13.737Z,98671.19
2023-01-04T02:04:42.261Z,98662.22
2023-01-04T02:07:08.716Z,98653.66
2023-01-04T02:09:35.209Z,98649.34
2023-01-04T02:12:01.672Z,98654.25
2023-01-04T02:14:28.202Z,98642.13
2023-01-04T02:17:24.055Z,98637.94
2023-01-04T02:20:16.497Z,98632.72
2023-01-04T02:22:48.897Z,98620.59
2023-01-04T02:25:36.439Z,98614.09
2023-01-04T02:28:41.458Z,98595.06
2023-01-04T02:31:10.829Z,98595.69
2023-01-04T02:33:44.436Z,98585.91
2023-01-04T02:36:14.312Z,98572.56
2023-01-04T02:38:55.399Z,98559.09
2023-01-04T02:41:27.953Z,98553.19
2023-01-04T02:44:17.122Z,98551.06
2023-01-04T02:47:02.549Z,98542.53
2023-01-04T02:49:47.768Z,98534.19
2023-01-04T02:52:14.248Z,98542.31
2023-01-04T02:54:40.734Z,98534.56
2023-01-04T02:57:24.782Z,98537.97
2023-01-04T02:59:56.176Z,98535.94
2023-01-04T03:03:19.946Z,98518.09
2023-01-04T03:06:15.998Z,98520.66
2023-01-04T03:08:56.868Z,98511.47
2023-01-04T03:11:42.014Z,98510.66
2023-01-04T03:14:31.833Z,98499.44
2023-01-04T03:16:58.008Z,98502.66
2023-01-04T03:19:43.134Z,98497.00
2023-01-04T03:22:29.562Z,98495.41
2023-01-04T03:25:14.668Z,98492.81
2023-01-04T03:27:59.689Z,98489.56
2023-01-04T03:30:46.102Z,98467.38
2023-01-04T03:33:31.136Z,98462.03
2023-01-04T03:36:28.353Z,98463.66
2023-01-04T03:39:23.191Z,98469.38
2023-01-04T03:42:48.834Z,98458.97
2023-01-04T03:45:39.409Z,98455.91
2023-01-04T03:48:33.199Z,98459.28
2023-01-04T03:51:09.227Z,98459.78
2023-01-04T03:53:51.405Z,98448.47
2023-01-04T03:56:18.051Z,98443.59
2023-01-04T03:58:44.565Z,98442.78
2023-01-04T04:01:11.193Z,98441.50
2023-01-04T04:03:56.432Z,98447.16
2023-01-04T04:06:41.443Z,98443.97
2023-01-04T04:09:07.900Z,98443.59
2023-01-04T04:11:34.373Z,98438.28
2023-01-04T04:14:00.912Z,98424.19
2023-01-04T04:16:27.744Z,98423.38
2023-01-04T04:18:54.325Z,98422.56
2023-01-04T04:21:21.111Z,98429.81
2023-01-04T04:23:47.691Z,98423.38
2023-01-04T04:26:14.311Z,98418.25
2023-01-04T04:28:40.796Z,98426.00
2023-01-04T04:31:07.630Z,98412.38
2023-01-04T04:33:34.112Z,98411.31
2023-01-04T04:36:00.577Z,98401.09
2023-01-04T04:38:27.046Z,98406.59
2023-01-04T04:41:12.058Z,98404.81
2023-01-04T04:43:38.543Z,98407.72
2023-01-04T04:46:05.208Z,98393.16
2023-01-04T04:48:31.731Z,98398.38
2023-01-04T04:50:58.206Z,98397.84
2023-01-04T04:53:24.698Z,98395.59
2023-01-04T04:55:52.016Z,98388.47
2023-01-04T04:58:18.492Z,98389.44
2023-01-04T05:00:45.038Z,98386.53
2023-01-04T05:03:11.644Z,98381.84
2023-01-04T05:05:38.215Z,98386.84
2023-01-04T05:08:04.879Z,98384.59
2023-01-04T05:10:31.366Z,98376.34
2023-01-04T05:13:00.471Z,98369.72
2023-01-04T05:15:28.512Z,98359.19
2023-01-04T05:17:55.016Z,98343.31
2023-01-04T05:20:21.487Z,98355.75
2023-01-04T05:22:47.949Z,98354.81
2023-01-04T05:25:14.520Z,98346.56
2023-01-04T05:27:41.036Z,98342.03
2023-01-04T05:30:27.390Z,98339.59
2023-01-04T05:32:53.840Z,98326.47
2023-01-04T05:35:20.347Z,98322.28
2023-01-04T05:37:46.829Z,98327.47
2023-01-04T05:40:13.365Z,98309.97
2023-01-04T05:42:39.841Z,98313.06
2023-01-04T05:45:06.864Z,98298.31
2023-01-04T05:47:33.331Z,98301.41
2023-01-04T05:49:59.811Z,98296.69
2023-01-04T05:52:26.396Z,98287.78
2023-01-04T05:54:52.877Z,98286.81
2023-01-04T05:57:19.703Z,98297.66
2023-01-04T05:59:46.192Z,98302.19
2023-01-04T06:02:17.052Z,98273.69
2023-01-04T06:04:43.624Z,98310.31
2023-01-04T06:07:10.086Z,98292.66
2023-01-04T06:09:36.584Z,98292.66
2023-01-04T06:12:03.075Z,98304.78
2023-01-04T06:14:29.593Z,98299.28
2023-01-04T06:16:56.086Z,98295.09
2023-01-04T06:19:22.600Z,98282.44
2023-01-04T06:21:49.057Z,98307.06
2023-01-04T06:24:15.525Z,98299.28
2023-01-04T06:26:42.077Z,98284.88
2023-01-04T06:29:08.574Z,98292.34
2023-01-04T06:31:35.031Z,98285.72
2023-01-04T06:34:01.560Z,98281.16
2023-01-04T06:36:28.148Z,98277.59
2023-01-04T06:38:56.578Z,98261.28
2023-01-04T06:41:23.081Z,98273.25
2023-01-04T06:43:49.565Z,98267.41
2023-01-04T06:46:16.071Z,98264.84
2023-01-04T06:48:42.865Z,98259.00
2023-01-04T06:51:09.360Z,98259.13
2023-01-04T06:53:35.847Z,98258.81
2023-01-04T06:56:02.340Z,98258.16
2023-01-04T06:58:28.804Z,98262.38
2023-01-04T07:00:55.434Z,98250.50
2023-01-04T07:03:22.587Z,98250.84
2023-01-04T07:05:49.145Z,98250.50
2023-01-04T07:08:15.922Z,98249.69
2023-01-04T07:10:42.622Z,98257.44
2023-01-04T07:13:09.190Z,98262.63
2023-01-04T07:15:39.538Z,98261.97
2023-01-04T07:18:07.268Z,98250.47
2023-01-04T07:20:33.743Z,98251.13
2023-01-04T07:23:00.222Z,98253.06
2023-01-04T07:25:26.705Z,98242.97
2023-01-04T07:27:53.577Z,98251.44
2023-01-04T07:30:20.883Z,98250.78
2023-01-04T07:32:47.738Z,98243.31
2023-01-04T07:35:14.481Z,98249.81
2023-01-04T07:37:42.843Z,98255.81
2023-01-04T07:40:10.030Z,98248.34
2023-01-04T07:42:36.517Z,98245.06
2023-01-04T07:45:03.972Z,98237.47
2023-01-04T07:47:30.468Z,98239.38
2023-01-04T07:49:56.999Z,98237.75
2023-01-04T07:52:23.669Z,98232.56
2023-01-04T07:54:50.240Z,98237.72
2023-01-04T07:57:16.705Z,98236.25
2023-01-04T07:59:43.240Z,98241.25
2023-01-04T08:02:13.034Z,98246.88
2023-01-04T08:04:39.668Z,98233.75
2023-01-04T08:07:06.449Z,98233.97
2023-01-04T08:09:32.994Z,98242.25
2023-01-04T08:11:59.635Z,98231.78
2023-01-04T08:14:26.252Z,98234.03
2023-01-04T08:16:52.833Z,98241.75
2023-01-04T08:19:20.781Z,98251.19
2023-01-04T08:21:47.363Z,98250.81
2023-01-04T08:24:18.084Z,98239.97
2023-01-04T08:26:44.887Z,98250.97
2023-01-04T08:29:11.484Z,98233.03
2023-01-04T08:31:38.109Z,98246.50
2023-01-04T08:34:05.788Z,98241.94
2023-01-04T08:36:34.150Z,98241.44
2023-01-04T08:39:09.642Z,98238.31
2023-01-04T08:42:01.091Z,98243.69
2023-01-04T08:44:31.605Z,98248.53
2023-01-04T08:46:58.909Z,98233.69
2023-01-04T08:49:25.562Z,98228.31
2023-01-04T08:51:52.097Z,98235.13
2023-01-04T08:54:18.627Z,98226.81
2023-01-04T08:56:45.098Z,98223.31
2023-01-04T08:59:11.816Z,98197.72
2023-01-04T09:01:39.285Z,98199.13
2023-01-04T09:04:05.921Z,98188.97
2023-01-04T09:06:32.402Z,98185.97
2023-01-04T09:08:58.906Z,98174.63
2023-01-04T09:11:25.883Z,98191.75
2023-01-04T09:14:02.466Z,98187.97
2023-01-04T09:16:33.145Z,98182.56
2023-01-04T09:18:59.709Z,98187.56
2023-01-04T09:21:26.204Z,98179.47
2023-01-04T09:23:52.699Z,98185.03
2023-01-04T09:26:23.630Z,98169.03
2023-01-04T09:28:50.710Z,98164.41
2023-01-04T09:31:18.892Z,98165.69
2023-01-04T09:34:13.369Z,98167.38
2023-01-04T09:36:31.987Z,98147.22
2023-01-04T09:38:58.457Z,98143.28
2023-01-04T09:41:29.391Z,98141.78
2023-01-04T09:43:59.220Z,98129.09
2023-01-04T09:46:44.267Z,98138.78
2023-01-04T09:49:18.094Z,98144.06
2023-01-04T09:51:55.058Z,98120.53
2023-01-04T09:54:22.047Z,98131.75
2023-01-04T09:56:50.944Z,98139.56
2023-01-04T09:59:17.479Z,98128.59
2023-01-04T10:01:53.805Z,98125.94
2023-01-04T10:04:49.204Z,98118.00
2023-01-04T10:07:25.427Z,98118.00
2023-01-04T10:09:51.904Z,98133.44
2023-01-04T10:12:43.626Z,98132.88
2023-01-04T10:15:41.291Z,98113.84
2023-01-04T10:21:31.930Z,98110.19
2023-01-04T10:24:02.034Z,98100.75
2023-01-04T10:26:38.748Z,98114.56
2023-01-04T10:29:30.104Z,98083.94
2023-01-04T10:32:10.319Z,98091.97
2023-01-04T10:34:44.185Z,98099.59
2023-01-04T10:37:40.184Z,98094.53
2023-01-04T10:40:13.132Z,98084.63
2023-01-04T10:42:51.682Z,98087.97
2023-01-04T10:45:36.162Z,98088.75
2023-01-04T10:48:10.622Z,98090.38
2023-01-04T10:50:48.076Z,98084.84
2023-01-04T10:53:26.281Z,98080.03
2023-01-04T10:56:26.068Z,98078.97
2023-01-04T10:58:52.217Z,98085.31
2023-01-04T11:01:23.646Z,98083.69
2023-01-04T11:03:57.055Z,98066.88
2023-01-04T11:06:24.196Z,98073.22
2023-01-04T11:08:59.171Z,98068.94
2023-01-04T11:11:27.669Z,98068.38
2023-01-04T11:13:54.463Z,98065.97
2023-01-04T11:16:21.020Z,98054.09
2023-01-04T11:18:48.560Z,98063.75
2023-01-04T11:21:15.100Z,98073.44
2023-01-04T11:23:41.584Z,98077.50
2023-01-04T11:26:19.990Z,98072.41
2023-01-04T11:28:54.238Z,98070.34
2023-01-04T11:31:35.800Z,98059.50
2023-01-04T11:34:03.025Z,98065.03
2023-01-04T11:36:39.447Z,98068.72
2023-01-04T11:39:26.183Z,98052.47
2023-01-04T11:42:05.989Z,98048.06
2023-01-04T11:44:33.150Z,98034.59
2023-01-04T11:47:19.397Z,98025.03
2023-01-04T11:49:45.977Z,98037.78
2023-01-04T11:52:27.422Z,98039.31
2023-01-04T11:54:54.009Z,98040.94
2023-01-04T11:57:20.944Z,98025.13
2023-01-04T12:00:24.545Z,98020.59
2023-01-04T12:03:01.121Z,98010.47
2023-01-04T12:05:30.310Z,98015.06
2023-01-04T12:07:57.958Z,98007.34
2023-01-04T12:10:26.949Z,98010.34
2023-01-04T12:12:54.707Z,98004.00
2023-01-04T12:15:44.539Z,97993.75
2023-01-04T12:18:15.540Z,98005.50
2023-01-04T12:20:42.009Z,97977.34
2023-01-04T12:23:09.824Z,97991.44
2023-01-04T12:26:00.350Z,97987.28
2023-01-04T12:28:39.717Z,97984.50
2023-01-04T12:31:22.082Z,97986.13
2023-01-04T12:33:56.330Z,97983.53
2023-01-04T12:36:37.902Z,97974.59
2023-01-04T12:39:16.443Z,97969.81
2023-01-04T12:42:00.640Z,97968.69
2023-01-04T12:44:36.221Z,97955.41
2023-01-04T12:47:47.859Z,97971.13
2023-01-04T12:50:23.171Z,97968.44
2023-01-04T12:55:43.806Z,97951.47
2023-01-04T12:58:51.172Z,97959.28
2023-01-04T13:01:28.420Z,97968.41
2023-01-04T13:04:04.207Z,97961.38
2023-01-04T13:06:32.327Z,97950.28
2023-01-04T13:08:59.163Z,97948.75
2023-01-04T13:11:46.031Z,97947.94
2023-01-04T13:14:43.780Z,97952.34
2023-01-04T13:17:18.654Z,97948.16
2023-01-04T13:19:45.825Z,97939.50
2023-01-04T13:22:28.860Z,97927.63
2023-01-04T13:24:57.532Z,97940.75
2023-01-04T13:27:24.114Z,97933.25
2023-01-04T13:29:51.081Z,97943.63
2023-01-04T13:32:25.167Z,97923.22
2023-01-04T13:35:01.055Z,97925.66
2023-01-04T13:37:31.924Z,97929.34
2023-01-04T13:40:17.297Z,97922.28
2023-01-04T13:42:51.779Z,97929.97
2023-01-04T13:45:30.219Z,97912.00
2023-01-04T13:47:58.018Z,97904.50
2023-01-04T13:50:43.933Z,97917.63
2023-01-04T13:53:21.184Z,97914.84
2023-01-04T13:55:55.281Z,97905.22
2023-01-04T13:58:26.189Z,97880.75
2023-01-04T14:01:17.244Z,97898.63
2023-01-04T14:03:46.444Z,97897.38
2023-01-04T14:06:33.086Z,97884.31
2023-01-04T14:09:05.291Z,97885.47
2023-01-04T14:11:53.899Z,97891.13
2023-01-04T14:14:53.727Z,97870.63
2023-01-04T14:17:27.619Z,97873.84
2023-01-04T14:19:58.468Z,97872.25
2023-01-04T14:22:37.739Z,97862.78
2023-01-04T14:25:41.869Z,97885.50
2023-01-04T14:28:24.799Z,97884.88
2023-01-04T14:31:03.667Z,97849.56
2023-01-04T14:33:36.222Z,97864.22
2023-01-04T14:36:06.598Z,97869.41
2023-01-04T14:38:36.126Z,97886.91
2023-01-04T14:41:17.658Z,97894.50
2023-01-04T14:43:46.206Z,97884.78
2023-01-04T14:46:17.248Z,97893.78
2023-01-04T14:48:43.945Z,97879.47
2023-01-04T14:51:12.363Z,97872.13
2023-01-04T14:53:38.858Z,97869.16
2023-01-04T14:56:05.545Z,97867.13
2023-01-04T14:58:32.018Z,97863.78
2023-01-04T15:00:58.560Z,97850.00
2023-01-04T15:03:25.182Z,97840.25
2023-01-04T15:05:51.686Z,97849.75
2023-01-04T15:08:18.155Z,97837.75
2023-01-04T15:10:46.139Z,97851.63
2023-01-04T15:13:12.645Z,97843.91
2023-01-04T15:15:42.174Z,97841.09
2023-01-04T15:18:09.118Z,97839.91
2023-01-04T15:20:35.686Z,97846.06
2023-01-04T15:23:02.189Z,97841.88
2023-01-04T15:25:29.743Z,97834.63
2023-01-04T15:27:56.279Z,97821.56
2023-01-04T15:30:22.762Z,97811.44
2023-01-04T15:32:49.250Z,97813.69
2023-01-04T15:35:18.608Z,97810.25
2023-01-04T15:37:45.146Z,97798.09
2023-01-04T15:40:15.815Z,97779.56
2023-01-04T15:43:00.959Z,97788.88
2023-01-04T15:45:35.894Z,97793.41
2023-01-04T15:48:06.626Z,97794.06
2023-01-04T15:50:37.910Z,97770.25
2023-01-04T15:53:05.305Z,97771.44
2023-01-04T15:55:36.294Z,97769.63
2023-01-04T15:58:04.181Z,97790.56
2023-01-04T16:00:30.658Z,97788.06
2023-01-04T16:02:57.294Z,97770.25
2023-01-04T16:05:23.841Z,97777.66
2023-01-04T16:07:50.326Z,97786.72
2023-01-04T16:10:16.928Z,97770.25
2023-01-04T16:12:44.263Z,97769.69
2023-01-04T16:15:14.593Z,97776.97
2023-01-04T16:17:41.406Z,97782.03
2023-01-04T16:20:08.279Z,97763.47
2023-01-04T16:22:34.810Z,97781.66
2023-01-04T16:25:16.600Z,97777.28
2023-01-04T16:27:43.980Z,97789.13
2023-01-04T16:30:13.832Z,97781.16
2023-01-04T16:32:41.877Z,97780.56
2023-01-04T16:35:08.888Z,97767.13
2023-01-04T16:37:35.477Z,97777.50
2023-01-04T16:40:06.689Z,97770.72
2023-01-04T16:42:37.297Z,97772.09
2023-01-04T16:45:03.981Z,97782.25
2023-01-04T16:47:37.423Z,97758.06
2023-01-04T16:50:04.209Z,97757.19
2023-01-04T16:52:30.803Z,97750.47
2023-01-04T16:54:57.328Z,97760.25
2023-01-04T16:57:24.307Z,97768.09
2023-01-04T16:59:50.824Z,97768.44
2023-01-04T17:02:17.422Z,97772.47
2023-01-04T17:04:43.992Z,97768.09
2023-01-04T17:07:11.291Z,97769.69
2023-01-04T17:09:41.058Z,97758.00
2023-01-04T17:15:23.796Z,97751.66
2023-01-04T17:17:42.841Z,97769.91
2023-01-04T17:20:09.503Z,97768.44
2023-01-04T17:22:36.110Z,97765.97
2023-01-04T17:25:03.505Z,97764.72
2023-01-04T17:27:29.975Z,97780.88
2023-01-04T17:29:56.470Z,97769.31
2023-01-04T17:32:23.395Z,97775.16
2023-01-04T17:34:50.090Z,97769.91
2023-01-04T17:37:16.595Z,97761.28
2023-01-04T17:39:43.152Z,97762.47
2023-01-04T17:42:09.624Z,97747.94
2023-01-04T17:44:36.144Z,97747.34
2023-01-04T17:47:02.622Z,97755.75
2023-01-04T17:49:32.031Z,97746.16
2023-01-04T17:51:58.963Z,97728.22
2023-01-04T17:54:25.584Z,97716.88
2023-01-04T17:56:52.209Z,97727.84
2023-01-04T17:59:18.737Z,97739.66
2023-01-04T18:01:45.319Z,97727.91
2023-01-04T18:04:11.928Z,97722.59
2023-01-04T18:06:38.919Z,97723.53
2023-01-04T18:09:06.485Z,97719.53
2023-01-04T18:11:32.991Z,97723.91
2023-01-04T18:13:59.750Z,97713.91
2023-01-04T18:16:28.580Z,97724.88
2023-01-04T18:18:56.191Z,97720.19
2023-01-04T18:21:28.465Z,97730.97
2023-01-04T18:29:32.808Z,97719.88
2023-01-04T18:31:59.324Z,97719.59
2023-01-04T18:34:28.676Z,97733.53
2023-01-04T18:36:55.216Z,97719.22
2023-01-04T18:39:21.786Z,97712.78
2023-01-04T18:41:48.549Z,97697.03
2023-01-04T18:47:02.300Z,97715.44
2023-01-04T18:49:28.862Z,97713.97
2023-01-04T18:51:55.326Z,97705.44
2023-01-04T18:54:22.149Z,97702.88
2023-01-04T18:56:48.724Z,97702.97
2023-01-04T18:59:17.362Z,97712.00
2023-01-04T19:01:45.179Z,97710.19
2023-01-04T19:04:12.666Z,97709.50
2023-01-04T19:06:40.040Z,97702.88
2023-01-04T19:09:07.159Z,97713.91
2023-01-04T19:11:33.846Z,97713.84
2023-01-04T19:14:00.350Z,97714.13
2023-01-04T19:16:30.826Z,97710.19
2023-01-04T19:18:58.923Z,97706.09
2023-01-04T19:21:25.756Z,97725.81
2023-01-04T19:23:52.670Z,97724.94
2023-01-04T19:26:19.226Z,97736.91
2023-01-04T19:28:45.691Z,97735.56
2023-01-04T19:31:12.282Z,97714.56
2023-01-04T19:33:39.357Z,97735.72
2023-01-04T19:36:08.905Z,97734.13
2023-01-04T19:38:35.677Z,97719.53
2023-01-04T19:41:02.433Z,97736.19
2023-01-04T19:43:29.044Z,97727.22
2023-01-04T19:45:55.620Z,97714.78
2023-01-04T19:48:23.705Z,97700.44
2023-01-04T19:51:01.734Z,97703.09
2023-01-04T19:53:28.220Z,97695.72
2023-01-04T19:55:57.723Z,97675.66
2023-01-04T19:58:24.197Z,97686.63
2023-01-04T20:00:54.563Z,97691.06
2023-01-04T20:03:22.438Z,97681.13
2023-01-04T20:05:49.612Z,97688.28
2023-01-04T20:08:16.078Z,97681.13
2023-01-04T20:10:42.561Z,97672.09
2023-01-04T20:13:09.134Z,97679.97
2023-01-04T20:15:39.371Z,97700.28
2023-01-04T20:18:11.842Z,97682.38
2023-01-04T20:20:44.040Z,97715.50
2023-01-04T20:23:10.547Z,97711.56
2023-01-04T20:25:44.856Z,97710.78
2023-01-04T20:28:11.315Z,97710.41
2023-01-04T20:30:37.918Z,97699.81
2023-01-04T20:33:05.275Z,97704.00
2023-01-04T20:35:31.757Z,97709.44
2023-01-04T20:37:58.442Z,97724.59
2023-01-04T20:40:25.559Z,97714.06
2023-01-04T20:43:10.518Z,97715.50
2023-01-04T20:45:43.664Z,97731.28
2023-01-04T20:48:10.155Z,97721.13
2023-01-04T20:50:36.639Z,97710.09
2023-01-04T20:53:03.261Z,97734.34
2023-01-04T20:55:29.919Z,97745.19
2023-01-04T20:57:56.825Z,97736.72
2023-01-04T21:00:23.389Z,97734.16
2023-01-04T21:02:50.042Z,97738.25
2023-01-04T21:05:16.827Z,97755.69
2023-01-04T21:07:43.380Z,97751.44
2023-01-04T21:10:09.881Z,97759.88
2023-01-04T21:12:38.419Z,97748.34
2023-01-04T21:15:05.079Z,97749.00
2023-01-04T21:17:31.590Z,97737.50
2023-01-04T21:19:58.069Z,97746.25
2023-01-04T21:22:25.805Z,97754.75
2023-01-04T21:24:52.269Z,97744.75
2023-01-04T21:27:18.752Z,97767.63
2023-01-04T21:29:45.243Z,97761.91
2023-01-04T21:32:11.735Z,97771.97
2023-01-04T21:34:38.347Z,97763.97
2023-01-04T21:37:04.852Z,97779.59
2023-01-04T21:39:31.335Z,97764.13
2023-01-04T21:41:57.803Z,97766.72
2023-01-04T21:44:24.270Z,97768.25
2023-01-04T21:46:50.955Z,97783.97
2023-01-04T21:49:17.487Z,97790.22
2023-01-04T21:51:43.944Z,97799.75
2023-01-04T21:54:10.398Z,97782.72
2023-01-04T21:56:36.891Z,97797.75
2023-01-04T21:59:03.382Z,97796.13
2023-01-04T22:01:34.959Z,97783.34
2023-01-04T22:04:02.063Z,97778.16
2023-01-04T22:06:29.177Z,97765.47
2023-01-04T22:08:55.753Z,97768.50
2023-01-04T22:11:22.240Z,97772.09
2023-01-04T22:13:50.264Z,97771.56
2023-01-04T22:16:16.982Z,97764.50
2023-01-04T22:18:48.240Z,97767.25
2023-01-04T22:21:18.646Z,97772.72
2023-01-04T22:23:44.986Z,97766.00
2023-01-04T22:26:11.611Z,97755.66
2023-01-04T22:28:38.781Z,97774.59
2023-01-04T22:31:10.512Z,97759.66
2023-01-04T22:33:37.341Z,97776.00
2023-01-04T22:36:07.037Z,97761.44
2023-01-04T22:38:35.433Z,97776.16
2023-01-04T22:41:08.244Z,97774.75
2023-01-04T22:43:35.410Z,97777.25
2023-01-04T22:46:02.469Z,97785.91
2023-01-04T22:48:29.044Z,97782.28
2023-01-04T22:50:55.586Z,97779.31
2023-01-04T22:53:22.074Z,97805.59
2023-01-04T22:56:17.509Z,97790.03
2023-01-04T22:58:35.748Z,97793.06
2023-01-04T23:01:05.773Z,97808.81
2023-01-04T23:03:33.291Z,97786.72
2023-01-04T23:05:59.885Z,97803.34
2023-01-04T23:08:28.741Z,97819.06
2023-01-04T23:10:55.232Z,97819.63
2023-01-04T23:13:21.695Z,97821.94
2023-01-04T23:15:48.278Z,97805.06
2023-01-04T23:18:14.835Z,97814.63
2023-01-04T23:20:41.343Z,97846.84
2023-01-04T23:23:07.809Z,97846.69
2023-01-04T23:25:34.619Z,97842.22
2023-01-04T23:28:01.078Z,97849.06
2023-01-04T23:30:27.536Z,97840.59
2023-01-04T23:32:54.261Z,97841.66
2023-01-04T23:35:20.728Z,97817.00
2023-01-04T23:37:47.190Z,97831.66
2023-01-04T23:40:13.671Z,97843.47
2023-01-04T23:42:40.136Z,97840.34
2023-01-04T23:45:07.212Z,97826.13
2023-01-04T23:47:33.688Z,97829.09
2023-01-04T23:50:00.220Z,97819.06
2023-01-04T23:52:26.690Z,97817.00
2023-01-04T23:54:53.174Z,97826.22
2023-01-04T23:57:19.639Z,97817.81
2023-01-04T23:59:46.109Z,97816.94
